Palm Springs, CA

8:37 AM PST on February 22, 2017 (GMT -0800)
PS Ruth Hardy Park @ Fruit Loop | | Change Station
Active Advisory: Small Craft Advisory

Elev 502 ft 33.84 °N, 116.54 °W | Updated 35 seconds ago

Clear
Clear
63.4 °F
Feels Like 63.4 °F
N
2.0
Wind Variable Wind from South

Today
High -- | Low -- °F
--% Chance of Precip.
Yesterday
High -- | Low -- °F
Precip. -- in
Pressure 30.01 in
Visibility 10.0 miles
Clouds Clear
Dew Point 48 °F
Humidity 59%
Rainfall 0.00 in
Snow Depth Not available.
6:22 AM 5:37 PM
Waning Crescent, 16% visible
METAR KPSP 221553Z 00000KT 10SM CLR 15/11 A3001 RMK AO2 SLP162 T01500106
Pressure 30.01 in
Visibility 10.0 miles
Clouds Clear
Dew Point 48 °F
Humidity 59%
Rainfall 0.00 in
Snow Depth Not available.
6:22 AM 5:37 PM
Waning Crescent, 16% visible
METAR KPSP 221553Z 00000KT 10SM CLR 15/11 A3001 RMK AO2 SLP162 T01500106

Get Your Daily Forecast Email!

Thanks for signing up!

Be on the lookout for a verification email in your inbox.

You'll start receiving the daily forecast at 8 AM.

×

10-Day Weather Forecast

Almanac

Astronomy

Feb. 22, 2017 Rise Set
Actual Time
Civil Twilight
Nautical Twilight
Astronomical Twilight
Moon
Length of Visible Light
Length of Day
Tomorrow will be .
, % of the Moon is Illuminated

Today's Extremes

State Highs State Lows

Community

WunderPhotos

Upload Photos

1,962,540 photos uploaded!

WunderBlog® & News

Nearby

Air Quality

  Air Quality AQ Index Pollutant
Not available.

Snow Depth

Station Depth Elevation

Earthquake Activity

City Distance Mag. Time & Date
Minimum magnitude displayed is 2.5.

Coastal Water Temperatures

Place Temperature

Stations

Nearby Weather Stations

Station Location Temp. Windchill Dew Point Humidity Wind Precip. Elev Updated Type
                   

Watches & Warnings

Small Craft Advisory
Issued: 5:33 AM PST Feb. 22, 2017 – National Weather Service

... Small Craft Advisory remains in effect until 2 am PST Friday...

* winds... northwest winds will increase today with gusts of 25 to
30 knots this afternoon and tonight before gradually lowering on
Thursday.

* Waves/seas... seas will build to 7 to 12 feet today as a swell
from 280 degrees moves into the coastal waters. The highest seas
will be over the outer coastal waters. Seas will lower Thursday
afternoon into Friday.

Precautionary/preparedness actions...

A Small Craft Advisory means that wind speeds of 21 to 33 knots
are expected to produce hazardous wave conditions to small craft.
Inexperienced mariners... especially those operating smaller
vessels should avoid navigating in these conditions.



Ss